Terminal Aerodrome Forecast
Issued by NWS Austin/San Antonio, TX

Home | Current Version | Previous Version | Text Only | Print | Product List | Glossary On
Versions: 1 2 3 4 5 6 7 8 9 10 11 12 13 14 15 16 17 18
752
FTUS44 KEWX 021720
TAFSAT
TAF
KSAT 021720Z 0218/0324 07009KT 6SM -SHRA BKN018 OVC035
      TEMPO 0218/0220 3SM BR
     FM030900 03010KT 2SM SHRA BR OVC004=

USA.gov is the U.S. government's official web portal to all federal, state and local government web resources and services.